createdAt,value
2018-08-11T00:00:22.329Z,39.20
2018-08-11T00:02:51.230Z,38.79
2018-08-11T00:05:20.340Z,38.85
2018-08-11T00:07:50.425Z,39.17
2018-08-11T00:10:19.519Z,40.49
2018-08-11T00:12:48.414Z,40.75
2018-08-11T00:15:19.636Z,39.09
2018-08-11T00:17:48.474Z,39.52
2018-08-11T00:20:33.356Z,41.10
2018-08-11T00:23:03.276Z,39.81
2018-08-11T00:25:32.352Z,41.07
2018-08-11T00:28:02.000Z,40.79
2018-08-11T00:30:30.819Z,38.71
2018-08-11T00:33:00.717Z,37.87
2018-08-11T00:35:29.700Z,38.75
2018-08-11T00:37:58.678Z,39.21
2018-08-11T00:40:27.914Z,39.44
2018-08-11T00:42:56.817Z,38.87
2018-08-11T00:45:25.822Z,40.12
2018-08-11T00:47:55.350Z,39.76
2018-08-11T00:50:26.339Z,38.84
2018-08-11T00:52:55.346Z,37.91
2018-08-11T00:55:24.255Z,38.47
2018-08-11T00:57:53.339Z,37.41
2018-08-11T01:00:22.003Z,37.09
2018-08-11T01:02:50.949Z,36.20
2018-08-11T01:05:20.923Z,36.53
2018-08-11T01:07:50.401Z,37.18
2018-08-11T01:10:19.832Z,36.59
2018-08-11T01:12:49.016Z,37.66
2018-08-11T01:15:19.748Z,38.18
2018-08-11T01:17:49.554Z,37.16
2018-08-11T01:20:18.571Z,37.92
2018-08-11T01:22:47.964Z,38.40
2018-08-11T01:25:18.452Z,38.88
2018-08-11T01:27:47.315Z,38.76
2018-08-11T01:30:20.859Z,38.63
2018-08-11T01:32:50.675Z,38.15
2018-08-11T01:35:20.465Z,39.30
2018-08-11T01:37:49.196Z,38.32
2018-08-11T01:40:18.794Z,37.70
2018-08-11T01:42:49.523Z,37.25
2018-08-11T01:45:18.885Z,36.73
2018-08-11T01:47:47.994Z,37.26
2018-08-11T01:50:17.276Z,36.52
2018-08-11T01:52:47.054Z,35.99
2018-08-11T01:55:17.171Z,35.35
2018-08-11T01:57:46.668Z,35.31
2018-08-11T02:00:16.534Z,35.76
2018-08-11T02:02:46.278Z,36.15
2018-08-11T02:05:15.273Z,36.29
2018-08-11T02:07:44.755Z,36.78
2018-08-11T02:10:16.855Z,36.50
2018-08-11T02:12:47.223Z,37.21
2018-08-11T02:15:16.148Z,38.85
2018-08-11T02:17:45.114Z,35.96
2018-08-11T02:20:15.719Z,36.99
2018-08-11T02:22:45.556Z,36.87
2018-08-11T02:25:14.597Z,36.37
2018-08-11T02:27:44.639Z,37.62
2018-08-11T02:30:15.460Z,37.07
2018-08-11T02:32:44.072Z,38.92
2018-08-11T02:35:13.877Z,36.42
2018-08-11T02:37:43.301Z,36.32
2018-08-11T02:40:14.319Z,37.33
2018-08-11T02:42:43.409Z,36.97
2018-08-11T02:45:14.264Z,37.08
2018-08-11T02:47:42.874Z,36.56
2018-08-11T02:50:12.766Z,36.75
2018-08-11T02:52:42.126Z,36.61
2018-08-11T02:55:11.003Z,36.67
2018-08-11T02:57:40.048Z,37.11
2018-08-11T03:00:10.659Z,36.05
2018-08-11T03:02:39.552Z,35.82
2018-08-11T03:05:08.972Z,35.09
2018-08-11T03:07:38.247Z,35.06
2018-08-11T03:10:08.627Z,34.91
2018-08-11T03:12:37.746Z,35.64
2018-08-11T03:15:08.473Z,37.35
2018-08-11T03:17:37.523Z,36.69
2018-08-11T03:20:08.683Z,37.69
2018-08-11T03:22:38.454Z,37.84
2018-08-11T03:25:08.464Z,38.70
2018-08-11T03:27:37.613Z,39.18
2018-08-11T03:30:07.023Z,39.30
2018-08-11T03:32:36.646Z,39.67
2018-08-11T03:35:06.895Z,40.75
2018-08-11T03:37:35.806Z,40.50
2018-08-11T03:40:05.667Z,40.67
2018-08-11T03:42:34.430Z,40.82
2018-08-11T03:45:03.437Z,40.96
2018-08-11T03:47:32.219Z,40.67
2018-08-11T03:50:01.321Z,40.25
2018-08-11T03:52:30.179Z,39.31
2018-08-11T03:54:59.089Z,39.32
2018-08-11T03:57:27.862Z,39.54
2018-08-11T03:59:56.982Z,39.40
2018-08-11T04:02:26.052Z,38.45
2018-08-11T04:04:55.141Z,41.81
2018-08-11T04:07:24.388Z,41.86
2018-08-11T04:09:53.024Z,41.71
2018-08-11T04:12:22.009Z,41.34
2018-08-11T04:14:51.156Z,41.30
2018-08-11T04:17:24.562Z,42.42
2018-08-11T04:19:53.508Z,42.48
2018-08-11T04:22:22.208Z,41.50
2018-08-11T04:24:51.123Z,41.85
2018-08-11T04:27:19.921Z,41.80
2018-08-11T04:29:49.364Z,42.09
2018-08-11T04:32:18.254Z,41.68
2018-08-11T04:34:47.039Z,42.13
2018-08-11T04:37:15.957Z,42.14
2018-08-11T04:39:45.141Z,42.92
2018-08-11T04:42:14.847Z,41.69
2018-08-11T04:44:43.565Z,41.69
2018-08-11T04:47:12.672Z,41.35
2018-08-11T04:49:42.077Z,40.50
2018-08-11T04:52:10.971Z,41.46
2018-08-11T04:54:39.832Z,40.31
2018-08-11T04:57:08.735Z,41.75
2018-08-11T04:59:37.612Z,41.53
2018-08-11T05:02:06.432Z,41.62
2018-08-11T05:04:35.497Z,41.01
2018-08-11T05:07:05.031Z,41.73
2018-08-11T05:09:34.644Z,40.79
2018-08-11T05:12:03.427Z,39.96
2018-08-11T05:14:32.963Z,40.35
2018-08-11T05:17:01.639Z,40.29
2018-08-11T05:19:30.619Z,40.58
2018-08-11T05:21:59.926Z,39.96
2018-08-11T05:24:28.760Z,40.25
2018-08-11T05:26:57.760Z,40.43
2018-08-11T05:29:26.816Z,39.42
2018-08-11T05:31:55.846Z,38.35
2018-08-11T05:34:24.916Z,38.87
2018-08-11T05:36:53.799Z,38.21
2018-08-11T05:39:23.397Z,38.62
2018-08-11T05:41:52.427Z,38.51
2018-08-11T05:44:21.265Z,37.70
2018-08-11T05:46:51.591Z,35.76
2018-08-11T05:49:20.390Z,36.53
2018-08-11T05:51:49.348Z,35.81
2018-08-11T05:54:18.164Z,36.97
2018-08-11T05:56:47.696Z,36.18
2018-08-11T05:59:17.372Z,35.91
2018-08-11T06:01:46.368Z,35.38
2018-08-11T06:04:15.827Z,35.95
2018-08-11T06:06:44.909Z,34.32
2018-08-11T06:09:13.770Z,34.70
2018-08-11T06:11:42.499Z,34.56
2018-08-11T06:14:11.263Z,33.27
2018-08-11T06:16:40.611Z,36.15
2018-08-11T06:19:09.659Z,32.88
2018-08-11T06:21:38.411Z,35.51
2018-08-11T06:24:07.743Z,33.33
2018-08-11T06:26:36.715Z,34.25
2018-08-11T06:29:05.865Z,32.30
2018-08-11T06:31:35.384Z,30.52
2018-08-11T06:34:04.433Z,30.74
2018-08-11T06:36:34.579Z,31.08
2018-08-11T06:39:04.769Z,32.09
2018-08-11T06:41:33.920Z,30.14
2018-08-11T06:44:02.909Z,29.16
2018-08-11T06:46:31.877Z,31.17
2018-08-11T06:49:00.811Z,29.92
2018-08-11T06:51:29.702Z,30.19
2018-08-11T06:53:58.666Z,29.28
2018-08-11T06:56:27.949Z,34.50
2018-08-11T06:58:58.120Z,32.26
2018-08-11T07:01:27.054Z,33.97
2018-08-11T07:03:56.076Z,26.43
2018-08-11T07:06:24.954Z,32.41
2018-08-11T07:08:53.948Z,27.90
2018-08-11T07:11:22.858Z,28.04
2018-08-11T07:13:51.493Z,28.28
2018-08-11T07:16:20.301Z,25.00
2018-08-11T07:18:49.183Z,27.10
2018-08-11T07:21:18.107Z,27.39
2018-08-11T07:23:47.008Z,28.02
2018-08-11T07:26:16.122Z,31.28
2018-08-11T07:28:44.958Z,29.30
2018-08-11T07:31:14.232Z,26.61
2018-08-11T07:33:43.792Z,25.69
2018-08-11T07:36:12.900Z,29.08
2018-08-11T07:38:42.409Z,25.64
2018-08-11T07:41:11.577Z,29.29
2018-08-11T07:43:40.656Z,30.64
2018-08-11T07:46:09.419Z,31.46
2018-08-11T07:48:38.360Z,28.91
2018-08-11T07:51:07.717Z,32.25
2018-08-11T07:53:36.764Z,31.36
2018-08-11T07:56:06.489Z,27.67
2018-08-11T07:58:35.180Z,29.62
2018-08-11T08:01:04.137Z,24.78
2018-08-11T08:03:33.024Z,26.56
2018-08-11T08:06:01.720Z,29.16
2018-08-11T08:08:30.735Z,28.80
2018-08-11T08:11:00.473Z,26.46
2018-08-11T08:13:29.421Z,28.51
2018-08-11T08:15:58.328Z,31.81
2018-08-11T08:18:27.215Z,27.76
2018-08-11T08:20:56.335Z,25.43
2018-08-11T08:23:25.264Z,29.34
2018-08-11T08:25:54.344Z,29.48
2018-08-11T08:28:23.825Z,26.64
2018-08-11T08:30:52.780Z,26.94
2018-08-11T08:33:21.799Z,25.19
2018-08-11T08:35:50.831Z,29.66
2018-08-11T08:38:19.716Z,27.40
2018-08-11T08:40:49.146Z,27.94
2018-08-11T08:43:18.863Z,31.20
2018-08-11T08:45:47.962Z,30.78
2018-08-11T08:48:16.850Z,25.17
2018-08-11T08:50:45.937Z,29.74
2018-08-11T08:53:14.755Z,25.97
2018-08-11T08:55:43.764Z,26.05
2018-08-11T08:58:12.786Z,28.47
2018-08-11T09:00:42.356Z,25.81
2018-08-11T09:03:11.684Z,28.21
2018-08-11T09:05:41.063Z,25.69
2018-08-11T09:08:10.192Z,30.06
2018-08-11T09:10:38.931Z,25.40
2018-08-11T09:13:08.245Z,24.96
2018-08-11T09:15:38.552Z,26.07
2018-08-11T09:18:07.617Z,23.20
2018-08-11T09:20:37.515Z,25.27
2018-08-11T09:23:06.492Z,25.56
2018-08-11T09:25:36.297Z,24.81
2018-08-11T09:28:05.263Z,28.62
2018-08-11T09:30:34.179Z,24.16
2018-08-11T09:33:02.989Z,27.93
2018-08-11T09:35:31.813Z,25.58
2018-08-11T09:38:01.292Z,24.89
2018-08-11T09:40:31.838Z,26.82
2018-08-11T09:43:05.197Z,28.45
2018-08-11T09:45:35.297Z,23.75
2018-08-11T09:48:06.436Z,24.18
2018-08-11T09:50:37.293Z,24.00
2018-08-11T09:53:06.414Z,25.38
2018-08-11T09:55:35.848Z,23.19
2018-08-11T09:58:05.462Z,24.44
2018-08-11T10:00:40.110Z,31.35
2018-08-11T10:03:09.666Z,24.89
2018-08-11T10:05:38.634Z,23.13
2018-08-11T10:08:08.722Z,25.71
2018-08-11T10:10:37.666Z,21.69
2018-08-11T10:13:07.872Z,22.37
2018-08-11T10:15:37.138Z,23.84
2018-08-11T10:18:07.103Z,24.11
2018-08-11T10:20:36.460Z,26.54
2018-08-11T10:23:05.193Z,28.71
2018-08-11T10:25:34.919Z,23.71
2018-08-11T10:28:03.874Z,24.64
2018-08-11T10:30:33.160Z,24.30
2018-08-11T10:33:02.424Z,24.63
2018-08-11T10:35:31.958Z,23.92
2018-08-11T10:38:00.796Z,23.51
2018-08-11T10:40:29.955Z,22.54
2018-08-11T10:42:58.983Z,23.75
2018-08-11T10:45:29.061Z,25.53
2018-08-11T10:47:57.977Z,23.21
2018-08-11T10:50:27.099Z,23.14
2018-08-11T10:52:56.186Z,24.96
2018-08-11T10:55:24.895Z,22.24
2018-08-11T10:57:53.798Z,23.72
2018-08-11T11:00:22.749Z,23.30
2018-08-11T11:02:51.673Z,22.63
2018-08-11T11:05:21.448Z,23.18
2018-08-11T11:07:51.078Z,23.21
2018-08-11T11:10:19.833Z,27.74
2018-08-11T11:12:48.917Z,22.01
2018-08-11T11:15:17.853Z,24.53
2018-08-11T11:17:46.488Z,22.32
2018-08-11T11:20:15.319Z,25.83
2018-08-11T11:22:44.689Z,23.24
2018-08-11T11:25:13.480Z,23.84
2018-08-11T11:27:43.109Z,23.71
2018-08-11T11:30:12.924Z,24.53
2018-08-11T11:32:41.909Z,23.14
2018-08-11T11:35:10.794Z,22.16
2018-08-11T11:37:39.753Z,20.91
2018-08-11T11:40:08.888Z,19.04
2018-08-11T11:42:39.195Z,18.82
2018-08-11T11:45:10.074Z,20.85
2018-08-11T11:47:39.176Z,23.10
2018-08-11T11:50:08.284Z,22.77
2018-08-11T11:52:36.916Z,20.45
2018-08-11T11:55:05.891Z,19.56
2018-08-11T11:57:35.086Z,18.64
2018-08-11T12:00:03.952Z,20.00
2018-08-11T12:02:32.743Z,21.16
2018-08-11T12:05:01.859Z,20.86
2018-08-11T12:07:30.919Z,18.12
2018-08-11T12:09:59.851Z,21.31
2018-08-11T12:12:28.516Z,18.16
2018-08-11T12:14:57.126Z,19.89
2018-08-11T12:17:25.724Z,16.25
2018-08-11T12:19:54.419Z,18.66
2018-08-11T12:22:23.121Z,21.73
2018-08-11T12:24:51.770Z,19.48
2018-08-11T12:27:20.448Z,16.49
2018-08-11T12:29:49.129Z,18.34
2018-08-11T12:32:17.761Z,16.17
2018-08-11T12:34:46.539Z,13.99
2018-08-11T12:37:15.431Z,14.28
2018-08-11T12:39:44.008Z,14.59
2018-08-11T12:42:12.617Z,12.84
2018-08-11T12:44:41.412Z,12.52
2018-08-11T12:47:10.234Z,11.32
2018-08-11T12:49:38.786Z,12.30
2018-08-11T12:52:07.419Z,11.50
2018-08-11T12:54:35.960Z,10.28
2018-08-11T12:57:05.037Z,10.15
2018-08-11T12:59:34.367Z,14.49
2018-08-11T13:02:03.400Z,10.26
2018-08-11T13:04:32.152Z,11.53
2018-08-11T13:07:01.460Z,12.12
2018-08-11T13:09:30.100Z,14.95
2018-08-11T13:11:59.097Z,12.71
2018-08-11T13:14:28.565Z,11.27
2018-08-11T13:16:57.310Z,11.95
2018-08-11T13:19:26.330Z,12.85
2018-08-11T13:21:55.226Z,11.06
2018-08-11T13:24:23.964Z,9.96
2018-08-11T13:26:52.983Z,11.93
2018-08-11T13:29:21.953Z,16.95
2018-08-11T13:31:50.878Z,14.00
2018-08-11T13:34:20.232Z,15.22
2018-08-11T13:36:49.955Z,15.24
2018-08-11T13:39:19.120Z,15.06
2018-08-11T13:41:49.723Z,14.40
2018-08-11T13:44:19.642Z,14.28
2018-08-11T13:46:49.211Z,14.61
2018-08-11T13:49:18.362Z,17.72
2018-08-11T13:51:47.118Z,16.85
2018-08-11T13:54:16.424Z,19.45
2018-08-11T13:56:46.074Z,12.54
2018-08-11T13:59:14.902Z,10.82
2018-08-11T14:01:45.448Z,10.23
2018-08-11T14:04:14.774Z,11.77
2018-08-11T14:06:43.861Z,13.00
2018-08-11T14:09:13.636Z,15.42
2018-08-11T14:11:42.729Z,16.29
2018-08-11T14:14:12.635Z,11.00
2018-08-11T14:16:41.673Z,11.00
2018-08-11T14:19:10.745Z,9.76
2018-08-11T14:21:40.098Z,9.32
2018-08-11T14:24:09.387Z,9.02
2018-08-11T14:26:39.110Z,9.21
2018-08-11T14:29:08.086Z,7.48
2018-08-11T14:31:37.235Z,8.96
2018-08-11T14:34:05.946Z,7.34
2018-08-11T14:36:35.372Z,7.34
2018-08-11T14:39:05.109Z,8.82
2018-08-11T14:41:34.111Z,8.60
2018-08-11T14:44:02.849Z,10.08
2018-08-11T14:46:31.790Z,12.22
2018-08-11T14:49:01.185Z,11.66
2018-08-11T14:51:35.069Z,10.80
2018-08-11T14:54:04.507Z,11.49
2018-08-11T14:56:33.554Z,11.90
2018-08-11T14:59:02.980Z,10.52
2018-08-11T15:01:31.993Z,10.11
2018-08-11T15:04:00.682Z,11.85
2018-08-11T15:06:29.645Z,11.73
2018-08-11T15:08:58.623Z,13.14
2018-08-11T15:11:27.702Z,12.49
2018-08-11T15:13:56.658Z,12.65
2018-08-11T15:16:25.888Z,10.95
2018-08-11T15:18:55.151Z,10.68
2018-08-11T15:21:24.206Z,8.48
2018-08-11T15:23:53.128Z,9.56
2018-08-11T15:26:21.952Z,9.17
2018-08-11T15:28:50.892Z,9.76
2018-08-11T15:31:19.993Z,9.40
2018-08-11T15:33:48.753Z,10.39
2018-08-11T15:36:18.439Z,9.75
2018-08-11T15:38:47.211Z,10.04
2018-08-11T15:41:16.078Z,10.01
2018-08-11T15:43:45.022Z,8.47
2018-08-11T15:46:13.678Z,10.12
2018-08-11T15:48:42.517Z,8.44
2018-08-11T15:51:11.232Z,7.69
2018-08-11T15:53:39.926Z,7.27
2018-08-11T15:56:08.757Z,7.68
2018-08-11T15:58:37.360Z,7.60
2018-08-11T16:01:06.149Z,9.57
2018-08-11T16:03:35.183Z,11.22
2018-08-11T16:06:04.073Z,10.96
2018-08-11T16:08:32.708Z,10.37
2018-08-11T16:11:01.448Z,10.72
2018-08-11T16:13:30.075Z,9.32
2018-08-11T16:15:58.905Z,10.33
2018-08-11T16:18:27.711Z,8.69
2018-08-11T16:20:56.490Z,8.50
2018-08-11T16:23:25.611Z,8.81
2018-08-11T16:25:54.687Z,8.69
2018-08-11T16:28:23.756Z,9.26
2018-08-11T16:30:52.532Z,9.76
2018-08-11T16:33:21.418Z,10.42
2018-08-11T16:35:50.083Z,11.71
2018-08-11T16:38:19.180Z,11.94
2018-08-11T16:40:49.090Z,11.31
2018-08-11T16:43:18.113Z,11.80
2018-08-11T16:45:47.054Z,12.96
2018-08-11T16:48:16.047Z,14.15
2018-08-11T16:50:44.712Z,12.78
2018-08-11T16:53:13.684Z,11.20
2018-08-11T16:55:43.306Z,13.11
2018-08-11T16:58:13.279Z,10.22
2018-08-11T17:00:42.489Z,11.55
2018-08-11T17:03:11.997Z,11.23
2018-08-11T17:05:40.931Z,13.02
2018-08-11T17:08:09.930Z,13.22
2018-08-11T17:10:38.834Z,16.53
2018-08-11T17:13:08.543Z,13.98
2018-08-11T17:15:38.013Z,14.29
2018-08-11T17:18:07.537Z,15.99
2018-08-11T17:20:38.167Z,16.41
2018-08-11T17:23:07.137Z,14.59
2018-08-11T17:25:36.101Z,15.43
2018-08-11T17:28:06.522Z,15.79
2018-08-11T17:30:37.661Z,15.32
2018-08-11T17:33:06.893Z,16.07
2018-08-11T17:35:35.670Z,17.61
2018-08-11T17:38:04.800Z,19.24
2018-08-11T17:40:33.783Z,18.29
2018-08-11T17:43:02.724Z,18.95
2018-08-11T17:45:32.023Z,19.49
2018-08-11T17:48:00.720Z,19.76
2018-08-11T17:50:29.857Z,20.46
2018-08-11T17:52:59.035Z,20.76
2018-08-11T17:55:28.804Z,21.87
2018-08-11T17:57:57.631Z,24.86
2018-08-11T18:00:26.603Z,21.60
2018-08-11T18:02:56.078Z,23.33
2018-08-11T18:05:25.141Z,22.23
2018-08-11T18:07:54.586Z,20.56
2018-08-11T18:10:23.655Z,23.21
2018-08-11T18:12:52.495Z,25.09
2018-08-11T18:15:21.303Z,21.25
2018-08-11T18:17:50.879Z,21.40
2018-08-11T18:20:20.055Z,23.40
2018-08-11T18:22:49.494Z,21.55
2018-08-11T18:25:18.742Z,29.15
2018-08-11T18:27:47.744Z,22.30
2018-08-11T18:30:16.948Z,22.83
2018-08-11T18:32:45.713Z,22.62
2018-08-11T18:35:15.331Z,22.31
2018-08-11T18:37:44.025Z,30.65
2018-08-11T18:40:13.512Z,25.54
2018-08-11T18:42:42.653Z,26.39
2018-08-11T18:45:11.583Z,24.17
2018-08-11T18:47:40.597Z,21.38
2018-08-11T18:50:09.569Z,22.57
2018-08-11T18:52:39.381Z,22.31
2018-08-11T18:55:09.104Z,22.60
2018-08-11T18:57:37.969Z,23.37
2018-08-11T19:00:16.683Z,23.85
2018-08-11T19:02:46.112Z,25.11
2018-08-11T19:05:15.158Z,24.31
2018-08-11T19:07:44.839Z,25.13
2018-08-11T19:10:13.918Z,25.26
2018-08-11T19:12:42.734Z,24.84
2018-08-11T19:15:13.328Z,26.04
2018-08-11T19:17:42.382Z,25.34
2018-08-11T19:20:13.212Z,25.54
2018-08-11T19:22:42.411Z,27.10
2018-08-11T19:25:12.171Z,26.59
2018-08-11T19:27:41.283Z,26.48
2018-08-11T19:30:11.048Z,26.66
2018-08-11T19:32:40.445Z,26.10
2018-08-11T19:35:09.531Z,26.87
2018-08-11T19:37:38.601Z,27.15
2018-08-11T19:40:09.131Z,27.11
2018-08-11T19:42:38.319Z,27.49
2018-08-11T19:45:09.420Z,27.90
2018-08-11T19:47:38.293Z,28.64
2018-08-11T19:50:08.330Z,28.11
2018-08-11T19:52:37.357Z,27.89
2018-08-11T19:55:07.487Z,28.79
2018-08-11T19:57:36.486Z,28.15
2018-08-11T20:00:09.320Z,28.47
2018-08-11T20:02:38.924Z,28.25
2018-08-11T20:05:09.595Z,28.84
2018-08-11T20:07:38.978Z,30.42
2018-08-11T20:10:08.758Z,29.46
2018-08-11T20:12:38.945Z,28.55
2018-08-11T20:15:09.912Z,28.91
2018-08-11T20:17:39.394Z,28.45
2018-08-11T20:20:09.769Z,29.57
2018-08-11T20:22:39.009Z,29.84
2018-08-11T20:25:08.131Z,29.60
2018-08-11T20:27:37.445Z,29.56
2018-08-11T20:30:08.122Z,29.57
2018-08-11T20:32:37.952Z,30.04
2018-08-11T20:35:07.931Z,29.37
2018-08-11T20:37:36.943Z,29.64
2018-08-11T20:40:06.322Z,32.14
2018-08-11T20:42:35.553Z,31.75
2018-08-11T20:45:05.540Z,32.64
2018-08-11T20:47:34.525Z,42.70
2018-08-11T20:50:03.951Z,38.78
2018-08-11T20:52:33.869Z,38.24
2018-08-11T20:55:02.766Z,37.21
2018-08-11T20:57:31.909Z,34.79
2018-08-11T21:00:01.192Z,33.79
2018-08-11T21:02:30.730Z,34.01
2018-08-11T21:04:59.652Z,32.76
2018-08-11T21:07:28.657Z,32.92
2018-08-11T21:09:58.095Z,31.72
2018-08-11T21:12:27.430Z,31.83
2018-08-11T21:14:56.440Z,31.28
2018-08-11T21:17:25.598Z,31.15
2018-08-11T21:19:54.594Z,30.91
2018-08-11T21:22:23.379Z,31.61
2018-08-11T21:24:52.034Z,30.93
2018-08-11T21:27:21.300Z,30.85
2018-08-11T21:29:50.504Z,30.64
2018-08-11T21:32:20.043Z,31.36
2018-08-11T21:34:48.778Z,31.97
2018-08-11T21:37:17.814Z,32.35
2018-08-11T21:39:46.635Z,31.25
2018-08-11T21:42:15.553Z,31.59
2018-08-11T21:44:44.369Z,31.31
2018-08-11T21:47:13.004Z,31.08
2018-08-11T21:49:42.052Z,30.77
2018-08-11T21:52:16.068Z,30.96
2018-08-11T21:54:49.108Z,30.79
2018-08-11T21:57:19.972Z,31.52
2018-08-11T21:59:49.488Z,31.60
2018-08-11T22:02:19.877Z,29.16
2018-08-11T22:04:48.825Z,33.01
2018-08-11T22:07:18.578Z,33.83
2018-08-11T22:09:47.751Z,34.61
2018-08-11T22:12:17.013Z,33.88
2018-08-11T22:14:45.929Z,29.83
2018-08-11T22:17:15.040Z,30.37
2018-08-11T22:19:44.037Z,33.51
2018-08-11T22:22:12.761Z,28.72
2018-08-11T22:24:41.316Z,33.20
2018-08-11T22:27:10.167Z,32.89
2018-08-11T22:29:39.469Z,32.41
2018-08-11T22:32:08.486Z,27.47
2018-08-11T22:34:37.361Z,32.02
2018-08-11T22:37:06.301Z,32.80
2018-08-11T22:39:34.884Z,32.83
2018-08-11T22:42:03.641Z,26.86
2018-08-11T22:44:32.375Z,33.23
2018-08-11T22:47:01.242Z,33.42
2018-08-11T22:49:29.973Z,30.01
2018-08-11T22:51:58.672Z,32.99
2018-08-11T22:54:27.421Z,31.38
2018-08-11T22:56:56.048Z,28.83
2018-08-11T22:59:24.738Z,31.44
2018-08-11T23:01:53.641Z,32.61
2018-08-11T23:04:22.315Z,33.29
2018-08-11T23:06:50.996Z,32.78
2018-08-11T23:09:19.687Z,32.64
2018-08-11T23:11:48.549Z,32.98
2018-08-11T23:14:17.213Z,32.30
2018-08-11T23:16:45.957Z,32.07
2018-08-11T23:19:14.670Z,32.05
2018-08-11T23:21:43.305Z,31.32
2018-08-11T23:24:11.963Z,30.74
2018-08-11T23:26:40.685Z,30.25
2018-08-11T23:29:09.422Z,31.03
2018-08-11T23:31:38.193Z,29.99
2018-08-11T23:34:13.357Z,32.50
2018-08-11T23:36:42.053Z,33.66
2018-08-11T23:39:11.815Z,33.64
2018-08-11T23:41:41.066Z,32.74
2018-08-11T23:44:09.751Z,31.62
2018-08-11T23:46:38.459Z,33.00
2018-08-11T23:49:07.388Z,29.76
2018-08-11T23:51:40.046Z,31.25
2018-08-11T23:54:14.315Z,31.67
2018-08-11T23:56:43.793Z,31.62
2018-08-11T23:59:12.475Z,31.25
